Time;durP1;ratioP1;P1;durP2;ratioP2;P2;SDS_P1;SDS_P2;PMS_P1;PMS_P2;Temp;Humidity;BMP_temperature;BMP_pressure;BME280_temperature;BME280_humidity;BME280_pressure;Samples;Min_cycle;Max_cycle;Signal;HPM_P1;HPM_P2
2020/12/29 00:01:50;;;;;;;22.33;14.07;;;;;;;;;;5042311;28;20665;-71
2020/12/29 00:04:20;;;;;;;21.97;13.87;;;;;;;;;;5035369;28;20194;-71
2020/12/29 00:06:56;;;;;;;23.30;14.67;;;;;;;;;;5044578;28;20280;-71
2020/12/29 00:09:23;;;;;;;20.40;14.47;;;;;;;;;;5038174;28;20188;-71
2020/12/29 00:11:49;;;;;;;21.60;13.97;;;;;;;;;;5039323;28;20650;-71
2020/12/29 00:14:18;;;;;;;21.53;14.27;;;;;;;;;;5045473;28;20192;-71
2020/12/29 00:16:43;;;;;;;24.27;14.73;;;;;;;;;;5029853;28;20255;-72
2020/12/29 00:19:11;;;;;;;25.00;15.30;;;;;;;;;;5045965;28;20193;-71
2020/12/29 00:21:40;;;;;;;23.73;14.87;;;;;;;;;;5029647;28;20190;-71
2020/12/29 00:24:06;;;;;;;25.47;15.70;;;;;;;;;;5045657;28;20185;-71
2020/12/29 00:26:31;;;;;;;20.37;14.40;;;;;;;;;;5032964;28;20200;-71
2020/12/29 00:28:56;;;;;;;22.77;15.40;;;;;;;;;;5038985;28;20232;-71
2020/12/29 00:31:23;;;;;;;21.57;15.23;;;;;;;;;;5036915;28;20652;-71
2020/12/29 00:33:56;;;;;;;23.27;14.83;;;;;;;;;;5040560;28;20193;-71
2020/12/29 00:36:21;;;;;;;22.83;15.83;;;;;;;;;;5033295;28;20643;-71
2020/12/29 00:38:47;;;;;;;23.93;15.33;;;;;;;;;;5041096;28;20267;-71
2020/12/29 00:41:13;;;;;;;22.80;15.13;;;;;;;;;;5037883;28;20189;-71
2020/12/29 00:43:39;;;;;;;26.73;16.37;;;;;;;;;;5048819;28;20197;-71
2020/12/29 00:46:07;;;;;;;28.60;16.80;;;;;;;;;;5051229;28;20174;-71
2020/12/29 00:48:33;;;;;;;26.80;16.60;;;;;;;;;;5039805;28;20629;-71
2020/12/29 00:51:06;;;;;;;25.00;15.60;;;;;;;;;;5050953;28;21869;-71
2020/12/29 00:53:31;;;;;;;23.97;15.73;;;;;;;;;;5039082;28;20196;-71
2020/12/29 00:56:04;;;;;;;23.33;15.13;;;;;;;;;;5049386;28;20209;-71
2020/12/29 00:58:30;;;;;;;24.60;15.63;;;;;;;;;;5038858;28;20636;-71
2020/12/29 01:00:55;;;;;;;23.77;14.63;;;;;;;;;;5048802;28;20192;-71
2020/12/29 01:03:21;;;;;;;25.23;16.80;;;;;;;;;;5041538;28;20334;-71
2020/12/29 01:05:46;;;;;;;23.60;15.20;;;;;;;;;;5050688;28;20606;-71
2020/12/29 01:08:12;;;;;;;26.80;16.80;;;;;;;;;;5039119;28;20561;-71
2020/12/29 01:10:38;;;;;;;23.77;16.27;;;;;;;;;;5046276;28;20189;-71
2020/12/29 01:13:04;;;;;;;25.53;17.00;;;;;;;;;;5039750;28;20182;-71
2020/12/29 01:15:29;;;;;;;26.37;18.03;;;;;;;;;;5050368;28;20200;-71
2020/12/29 01:17:55;;;;;;;23.97;16.03;;;;;;;;;;5037610;28;20186;-71
2020/12/29 01:20:24;;;;;;;26.27;16.60;;;;;;;;;;5050926;28;20555;-71
2020/12/29 01:22:53;;;;;;;25.93;15.90;;;;;;;;;;5047061;28;20241;-71
2020/12/29 01:25:19;;;;;;;23.07;15.10;;;;;;;;;;5044099;28;20558;-71
2020/12/29 01:27:45;;;;;;;19.80;13.50;;;;;;;;;;5047378;28;20651;-71
2020/12/29 01:30:11;;;;;;;19.50;13.53;;;;;;;;;;5041387;28;20185;-71
2020/12/29 01:32:37;;;;;;;25.73;15.70;;;;;;;;;;5046442;28;20659;-71
2020/12/29 01:35:03;;;;;;;21.53;15.00;;;;;;;;;;5042489;28;20189;-71
2020/12/29 01:37:29;;;;;;;23.83;14.97;;;;;;;;;;5047234;28;20212;-71
2020/12/29 01:39:54;;;;;;;25.60;16.13;;;;;;;;;;5038209;28;20201;-71
2020/12/29 01:42:20;;;;;;;23.93;15.40;;;;;;;;;;5046000;28;20181;-71
2020/12/29 01:44:45;;;;;;;19.97;13.80;;;;;;;;;;5038698;28;20189;-71
2020/12/29 01:47:10;;;;;;;23.10;15.00;;;;;;;;;;5047771;28;20204;-71
2020/12/29 01:49:36;;;;;;;26.13;16.00;;;;;;;;;;5040797;28;20177;-71
2020/12/29 01:52:01;;;;;;;25.57;16.13;;;;;;;;;;5047056;28;20182;-71
2020/12/29 01:54:26;;;;;;;23.40;15.60;;;;;;;;;;5045866;28;20268;-71
2020/12/29 01:56:52;;;;;;;26.07;15.83;;;;;;;;;;5036843;28;20248;-71
2020/12/29 01:59:17;;;;;;;23.53;15.17;;;;;;;;;;5049924;28;20750;-71
2020/12/29 02:01:44;;;;;;;24.07;15.63;;;;;;;;;;5033041;28;20280;-71
2020/12/29 02:04:11;;;;;;;25.00;16.90;;;;;;;;;;5050069;28;20193;-71
2020/12/29 02:06:38;;;;;;;25.90;15.50;;;;;;;;;;5037144;28;20673;-71
2020/12/29 02:09:04;;;;;;;24.70;15.73;;;;;;;;;;5051208;28;20192;-71
2020/12/29 02:11:30;;;;;;;22.73;15.13;;;;;;;;;;5030063;28;20193;-71
2020/12/29 02:13:55;;;;;;;23.03;15.33;;;;;;;;;;5047706;28;20546;-71
2020/12/29 02:16:21;;;;;;;27.57;15.60;;;;;;;;;;5037822;28;20210;-71
2020/12/29 02:18:46;;;;;;;26.20;16.07;;;;;;;;;;5048824;28;20522;-71
2020/12/29 02:21:11;;;;;;;26.97;16.57;;;;;;;;;;5037187;28;20190;-71
2020/12/29 02:23:37;;;;;;;27.63;15.47;;;;;;;;;;5045295;28;20198;-71
2020/12/29 02:26:03;;;;;;;25.43;15.43;;;;;;;;;;5044233;28;20230;-71
2020/12/29 02:28:28;;;;;;;23.77;14.73;;;;;;;;;;5038087;28;20657;-71
2020/12/29 02:30:53;;;;;;;28.77;16.53;;;;;;;;;;5046599;28;20513;-71
2020/12/29 02:33:19;;;;;;;26.53;15.90;;;;;;;;;;5039626;28;20578;-71
2020/12/29 02:35:44;;;;;;;24.00;15.13;;;;;;;;;;5045815;28;20278;-71
2020/12/29 02:38:09;;;;;;;25.23;16.13;;;;;;;;;;5041281;28;20201;-71
2020/12/29 02:40:35;;;;;;;27.80;16.87;;;;;;;;;;5044901;28;20223;-71
2020/12/29 02:43:01;;;;;;;26.63;16.40;;;;;;;;;;5036516;28;20644;-71
2020/12/29 02:45:27;;;;;;;26.97;16.23;;;;;;;;;;5046133;28;20193;-71
2020/12/29 02:47:52;;;;;;;27.27;16.13;;;;;;;;;;5037290;28;20817;-71
2020/12/29 02:50:17;;;;;;;28.50;16.63;;;;;;;;;;5046320;28;20189;-71
2020/12/29 02:52:43;;;;;;;22.07;14.07;;;;;;;;;;5037884;28;20276;-71
2020/12/29 02:55:08;;;;;;;26.67;15.73;;;;;;;;;;5045291;28;20243;-71
2020/12/29 02:57:33;;;;;;;26.57;15.87;;;;;;;;;;5043952;28;20243;-71
2020/12/29 02:59:59;;;;;;;26.17;15.63;;;;;;;;;;5035956;28;20201;-71
2020/12/29 03:02:24;;;;;;;23.83;15.03;;;;;;;;;;5043229;28;20189;-71
2020/12/29 03:04:49;;;;;;;28.03;17.10;;;;;;;;;;5034999;28;20189;-71
2020/12/29 03:07:15;;;;;;;29.73;16.10;;;;;;;;;;5048331;28;20201;-71
2020/12/29 03:09:40;;;;;;;26.27;15.77;;;;;;;;;;5037436;28;20185;-70
2020/12/29 03:12:06;;;;;;;24.80;15.40;;;;;;;;;;5040399;28;20581;-71
2020/12/29 03:14:31;;;;;;;28.33;16.73;;;;;;;;;;5037586;28;20606;-71
2020/12/29 03:16:56;;;;;;;27.77;16.47;;;;;;;;;;5047499;28;20213;-70
2020/12/29 03:19:22;;;;;;;26.57;15.63;;;;;;;;;;5038731;28;20219;-70
2020/12/29 03:21:48;;;;;;;27.37;16.20;;;;;;;;;;5043221;28;20197;-70
2020/12/29 03:24:14;;;;;;;29.30;16.93;;;;;;;;;;5037161;28;20189;-71
2020/12/29 03:26:39;;;;;;;27.97;17.23;;;;;;;;;;5048126;28;20178;-70
2020/12/29 03:29:05;;;;;;;31.00;18.60;;;;;;;;;;5047607;28;20234;-70
2020/12/29 03:31:30;;;;;;;28.90;18.03;;;;;;;;;;5034295;28;20197;-70
2020/12/29 03:33:55;;;;;;;29.37;17.40;;;;;;;;;;5045832;28;20185;-70
2020/12/29 03:36:21;;;;;;;27.87;17.20;;;;;;;;;;5040023;28;20264;-71
2020/12/29 03:38:46;;;;;;;28.47;17.03;;;;;;;;;;5045070;28;20648;-70
2020/12/29 03:41:11;;;;;;;28.80;18.17;;;;;;;;;;5036236;28;20699;-70
2020/12/29 03:43:37;;;;;;;29.97;17.40;;;;;;;;;;5045874;28;20230;-70
2020/12/29 03:46:02;;;;;;;28.83;17.93;;;;;;;;;;5037975;28;20637;-70
2020/12/29 03:48:27;;;;;;;26.17;15.80;;;;;;;;;;5044261;28;20186;-70
2020/12/29 03:50:53;;;;;;;29.40;17.70;;;;;;;;;;5035590;28;20197;-70
2020/12/29 03:53:19;;;;;;;29.10;17.60;;;;;;;;;;5044851;28;20188;-70
2020/12/29 03:55:45;;;;;;;31.53;17.77;;;;;;;;;;5041536;28;20217;-71
2020/12/29 03:58:10;;;;;;;25.67;15.53;;;;;;;;;;5042800;28;20331;-70
2020/12/29 04:00:37;;;;;;;28.97;17.00;;;;;;;;;;5039079;28;20550;-70
2020/12/29 04:03:04;;;;;;;25.70;16.43;;;;;;;;;;5036520;28;20189;-70
2020/12/29 04:05:29;;;;;;;28.67;17.50;;;;;;;;;;5044544;28;20189;-70
2020/12/29 04:07:55;;;;;;;30.80;18.00;;;;;;;;;;5036740;28;20578;-70
2020/12/29 04:10:21;;;;;;;24.80;16.20;;;;;;;;;;5046964;28;20267;-70
2020/12/29 04:12:47;;;;;;;27.87;17.30;;;;;;;;;;5035124;28;20197;-71
2020/12/29 04:15:12;;;;;;;26.40;16.73;;;;;;;;;;5040680;28;20196;-71
2020/12/29 04:17:39;;;;;;;27.63;17.23;;;;;;;;;;5039567;28;20213;-71
2020/12/29 04:20:06;;;;;;;27.90;17.00;;;;;;;;;;5050716;28;20197;-71
2020/12/29 04:22:32;;;;;;;28.67;17.20;;;;;;;;;;5039306;28;20213;-70
2020/12/29 04:24:58;;;;;;;28.90;17.47;;;;;;;;;;5050760;28;20250;-71
2020/12/29 04:27:24;;;;;;;28.20;17.60;;;;;;;;;;5041966;28;20235;-71
2020/12/29 04:29:50;;;;;;;26.40;16.87;;;;;;;;;;5046727;28;20185;-70
2020/12/29 04:32:16;;;;;;;26.63;16.43;;;;;;;;;;5049808;28;20710;-70
2020/12/29 04:34:42;;;;;;;26.30;16.63;;;;;;;;;;5041228;28;20193;-70
2020/12/29 04:37:07;;;;;;;28.27;16.03;;;;;;;;;;5051113;28;20225;-70
2020/12/29 04:39:33;;;;;;;23.70;15.63;;;;;;;;;;5040952;28;20201;-70
2020/12/29 04:42:04;;;;;;;27.57;17.10;;;;;;;;;;5047306;28;20194;-70
2020/12/29 04:44:30;;;;;;;27.03;16.97;;;;;;;;;;5040208;28;20186;-71
2020/12/29 04:46:55;;;;;;;25.77;16.77;;;;;;;;;;5050597;28;20185;-70
2020/12/29 04:49:22;;;;;;;24.37;15.83;;;;;;;;;;5040866;28;20276;-70
2020/12/29 04:51:50;;;;;;;25.70;16.03;;;;;;;;;;5049483;28;20194;-70
2020/12/29 04:54:18;;;;;;;27.27;15.97;;;;;;;;;;5033415;28;20190;-71
2020/12/29 04:56:49;;;;;;;28.73;16.30;;;;;;;;;;5048463;28;20224;-71
2020/12/29 04:59:15;;;;;;;28.17;17.33;;;;;;;;;;5038737;28;20197;-70
2020/12/29 05:01:41;;;;;;;25.30;16.00;;;;;;;;;;5040663;28;20178;-71
2020/12/29 05:04:06;;;;;;;26.03;15.83;;;;;;;;;;5037204;28;20666;-71
2020/12/29 05:06:32;;;;;;;24.07;17.03;;;;;;;;;;5047189;28;20209;-70
2020/12/29 05:08:57;;;;;;;23.57;16.40;;;;;;;;;;5050012;28;20185;-70
2020/12/29 05:11:24;;;;;;;22.97;15.43;;;;;;;;;;5039491;28;20708;-71
2020/12/29 05:13:49;;;;;;;22.00;15.00;;;;;;;;;;5047789;28;20193;-71
2020/12/29 05:16:16;;;;;;;26.43;16.23;;;;;;;;;;5036561;28;20562;-71
2020/12/29 05:18:42;;;;;;;25.20;15.63;;;;;;;;;;5048117;28;20608;-71
2020/12/29 05:21:07;;;;;;;26.37;17.13;;;;;;;;;;5036920;28;20653;-70
2020/12/29 05:23:35;;;;;;;24.73;15.03;;;;;;;;;;5047844;28;20189;-69
2020/12/29 05:26:00;;;;;;;24.27;16.70;;;;;;;;;;5035741;28;20270;-69
2020/12/29 05:28:27;;;;;;;22.93;15.60;;;;;;;;;;5048022;28;20193;-69
2020/12/29 05:31:02;;;;;;;24.97;16.70;;;;;;;;;;5039097;28;20189;-69
2020/12/29 05:33:28;;;;;;;22.93;15.77;;;;;;;;;;5044954;28;20188;-69
2020/12/29 05:35:55;;;;;;;25.67;16.57;;;;;;;;;;5040821;28;21091;-69
2020/12/29 05:38:20;;;;;;;24.10;16.23;;;;;;;;;;5048037;28;20196;-69
2020/12/29 05:40:47;;;;;;;24.37;15.83;;;;;;;;;;5045072;28;20182;-69
2020/12/29 05:43:13;;;;;;;25.33;16.13;;;;;;;;;;5035730;28;20534;-69
2020/12/29 05:45:39;;;;;;;26.07;16.40;;;;;;;;;;5046674;28;20231;-69
2020/12/29 05:48:05;;;;;;;25.90;16.07;;;;;;;;;;5036967;28;20197;-69
2020/12/29 05:50:32;;;;;;;29.60;17.30;;;;;;;;;;5049696;28;20197;-69
2020/12/29 05:53:06;;;;;;;25.90;17.53;;;;;;;;;;5034742;28;20694;-69
2020/12/29 05:55:33;;;;;;;28.83;17.10;;;;;;;;;;5047005;28;20219;-69
2020/12/29 05:58:09;;;;;;;25.37;16.90;;;;;;;;;;5039942;28;20193;-69
2020/12/29 06:00:37;;;;;;;27.43;18.03;;;;;;;;;;5043013;28;20239;-69
2020/12/29 06:03:04;;;;;;;27.07;17.13;;;;;;;;;;5031466;28;20212;-69
2020/12/29 06:05:31;;;;;;;30.13;17.90;;;;;;;;;;5049588;28;20173;-69
2020/12/29 06:08:05;;;;;;;25.60;17.00;;;;;;;;;;5036244;28;20255;-69
2020/12/29 06:10:32;;;;;;;26.30;17.30;;;;;;;;;;5044698;28;20181;-69
2020/12/29 06:12:59;;;;;;;26.07;17.17;;;;;;;;;;5036749;28;20186;-69
2020/12/29 06:15:36;;;;;;;27.57;18.53;;;;;;;;;;5041323;28;20182;-69
2020/12/29 06:18:03;;;;;;;24.87;17.40;;;;;;;;;;5034466;28;20200;-69
2020/12/29 06:20:52;;;;;;;27.30;18.07;;;;;;;;;;5042184;28;20231;-69
2020/12/29 06:23:18;;;;;;;27.37;17.97;;;;;;;;;;5035604;28;20742;-69
2020/12/29 06:25:45;;;;;;;25.57;18.17;;;;;;;;;;5044157;28;20851;-69
2020/12/29 06:28:14;;;;;;;25.87;17.73;;;;;;;;;;5041715;28;20346;-69
2020/12/29 06:30:41;;;;;;;27.60;17.73;;;;;;;;;;5044916;28;20189;-69
2020/12/29 06:33:07;;;;;;;25.70;18.07;;;;;;;;;;5042975;28;20544;-69
2020/12/29 06:35:32;;;;;;;23.90;17.67;;;;;;;;;;5033085;28;20229;-69
2020/12/29 06:38:18;;;;;;;22.93;16.47;;;;;;;;;;5042875;28;20548;-69
2020/12/29 06:40:46;;;;;;;26.07;17.27;;;;;;;;;;5034024;28;20195;-69
2020/12/29 06:43:12;;;;;;;26.23;17.17;;;;;;;;;;5042558;28;20185;-69
2020/12/29 06:45:37;;;;;;;23.33;17.03;;;;;;;;;;5028790;28;20185;-70
2020/12/29 06:48:16;;;;;;;29.20;19.20;;;;;;;;;;5042608;28;20234;-69
2020/12/29 06:50:42;;;;;;;28.07;18.13;;;;;;;;;;5037911;28;20234;-69
2020/12/29 06:53:08;;;;;;;27.03;18.83;;;;;;;;;;5044753;28;20181;-69
2020/12/29 06:55:38;;;;;;;25.97;18.83;;;;;;;;;;5035971;28;20268;-69
2020/12/29 06:58:05;;;;;;;25.60;18.33;;;;;;;;;;5045724;28;20201;-69
2020/12/29 07:00:30;;;;;;;28.93;17.90;;;;;;;;;;5029957;28;20189;-69
2020/12/29 07:02:56;;;;;;;26.63;18.77;;;;;;;;;;5045466;28;20186;-69
2020/12/29 07:05:30;;;;;;;24.90;18.00;;;;;;;;;;5037002;28;20664;-69
2020/12/29 07:08:02;;;;;;;28.73;18.53;;;;;;;;;;5047687;28;20672;-69
2020/12/29 07:10:36;;;;;;;25.47;18.20;;;;;;;;;;5034120;28;20195;-69
2020/12/29 07:13:10;;;;;;;25.63;17.43;;;;;;;;;;5045445;28;20591;-70
2020/12/29 07:15:53;;;;;;;28.83;18.03;;;;;;;;;;5028059;28;20191;-69
2020/12/29 07:18:22;;;;;;;25.63;17.83;;;;;;;;;;5044420;28;20629;-69
2020/12/29 07:20:49;;;;;;;24.07;17.73;;;;;;;;;;5037630;28;20189;-69
2020/12/29 07:23:18;;;;;;;30.97;18.17;;;;;;;;;;5047893;28;20514;-69
2020/12/29 07:25:48;;;;;;;27.93;18.77;;;;;;;;;;5042088;28;20173;-69
2020/12/29 07:28:15;;;;;;;26.90;18.43;;;;;;;;;;5030083;28;20223;-69
2020/12/29 07:30:40;;;;;;;26.93;19.33;;;;;;;;;;5044600;28;20231;-69
2020/12/29 07:33:07;;;;;;;28.97;18.60;;;;;;;;;;5036193;28;20181;-69
2020/12/29 07:35:38;;;;;;;30.60;20.67;;;;;;;;;;5043992;28;20348;-69
2020/12/29 07:38:14;;;;;;;28.87;20.23;;;;;;;;;;5028702;28;20733;-69
2020/12/29 07:40:42;;;;;;;25.67;19.00;;;;;;;;;;5040639;28;20535;-69
2020/12/29 07:43:08;;;;;;;29.70;18.87;;;;;;;;;;5033361;28;20284;-69
2020/12/29 07:45:34;;;;;;;26.10;18.63;;;;;;;;;;5043262;28;20239;-70
2020/12/29 07:48:00;;;;;;;29.23;18.30;;;;;;;;;;5034109;28;20192;-69
2020/12/29 07:50:27;;;;;;;24.33;18.63;;;;;;;;;;5039563;28;20177;-69
2020/12/29 07:53:00;;;;;;;25.57;18.27;;;;;;;;;;5039402;28;20648;-69
2020/12/29 07:55:25;;;;;;;25.70;18.40;;;;;;;;;;5039602;28;20180;-69
2020/12/29 07:57:50;;;;;;;26.93;18.33;;;;;;;;;;5033466;28;20601;-69
2020/12/29 08:00:16;;;;;;;33.93;19.23;;;;;;;;;;5046319;28;20193;-69
2020/12/29 08:02:50;;;;;;;23.10;16.73;;;;;;;;;;5036112;28;20189;-69
2020/12/29 08:05:15;;;;;;;24.83;17.37;;;;;;;;;;5037559;28;20196;-70
2020/12/29 08:07:41;;;;;;;26.80;18.33;;;;;;;;;;5041091;28;20189;-70
2020/12/29 08:10:06;;;;;;;28.57;19.67;;;;;;;;;;5032640;28;20194;-70
2020/12/29 08:12:31;;;;;;;28.70;19.83;;;;;;;;;;5040014;28;20182;-70
2020/12/29 08:14:56;;;;;;;29.50;20.03;;;;;;;;;;5036632;28;20181;-70
2020/12/29 08:17:22;;;;;;;26.67;18.37;;;;;;;;;;5044922;28;20212;-70
2020/12/29 08:19:58;;;;;;;30.03;19.33;;;;;;;;;;5037063;28;20189;-69
2020/12/29 08:22:27;;;;;;;35.47;18.87;;;;;;;;;;5043371;28;20188;-70
2020/12/29 08:24:52;;;;;;;30.60;19.77;;;;;;;;;;5034028;28;20196;-70
2020/12/29 08:27:18;;;;;;;30.73;19.70;;;;;;;;;;5045026;28;20190;-70
2020/12/29 08:29:44;;;;;;;28.20;19.03;;;;;;;;;;5034823;28;20674;-70
2020/12/29 08:32:11;;;;;;;31.63;20.17;;;;;;;;;;5046339;28;20243;-70
2020/12/29 08:34:39;;;;;;;31.50;20.27;;;;;;;;;;5029251;28;20528;-69
2020/12/29 08:37:06;;;;;;;30.81;18.92;;;;;;;;;;4343240;28;10021517;-70
2020/12/29 08:39:48;;;;;;;30.83;20.80;;;;;;;;;;5039580;28;20185;-69
2020/12/29 08:42:17;;;;;;;34.67;21.07;;;;;;;;;;5039224;28;20208;-70
2020/12/29 08:44:44;;;;;;;35.30;21.23;;;;;;;;;;5042922;28;20550;-70
2020/12/29 08:47:10;;;;;;;34.77;20.57;;;;;;;;;;5031801;28;20214;-70
2020/12/29 08:49:36;;;;;;;35.20;22.23;;;;;;;;;;5040509;28;20200;-70
2020/12/29 08:52:01;;;;;;;34.30;21.17;;;;;;;;;;5034115;28;20661;-70
2020/12/29 08:54:34;;;;;;;39.43;22.90;;;;;;;;;;5043385;28;20636;-70
2020/12/29 08:57:01;;;;;;;35.53;22.40;;;;;;;;;;5030556;28;20561;-69
2020/12/29 08:59:34;;;;;;;42.20;23.53;;;;;;;;;;5038262;28;20649;-69
2020/12/29 09:02:00;;;;;;;44.00;23.07;;;;;;;;;;5031009;28;20275;-69
2020/12/29 09:04:31;;;;;;;37.47;22.70;;;;;;;;;;5044950;28;20287;-70
2020/12/29 09:07:01;;;;;;;45.60;23.27;;;;;;;;;;5032944;28;20616;-70
2020/12/29 09:09:29;;;;;;;52.27;24.57;;;;;;;;;;5059086;28;20196;-70
2020/12/29 09:12:30;;;;;;;41.70;24.07;;;;;;;;;;5032323;28;20188;-70
2020/12/29 09:15:01;;;;;;;45.10;24.27;;;;;;;;;;5041134;28;20664;-70
2020/12/29 09:17:31;;;;;;;49.30;24.70;;;;;;;;;;5033847;28;20201;-70
2020/12/29 09:20:15;;;;;;;45.73;26.07;;;;;;;;;;5043756;28;21058;-70
2020/12/29 09:22:53;;;;;;;59.00;27.37;;;;;;;;;;5032559;28;20189;-70
2020/12/29 09:25:30;;;;;;;40.80;23.30;;;;;;;;;;5044010;28;20200;-70
2020/12/29 09:28:14;;;;;;;53.20;27.17;;;;;;;;;;5030762;28;20645;-70
2020/12/29 09:30:42;;;;;;;49.93;25.47;;;;;;;;;;5041363;28;20204;-70
2020/12/29 09:33:08;;;;;;;46.87;25.07;;;;;;;;;;5035726;28;20181;-70
2020/12/29 09:35:33;;;;;;;45.20;25.00;;;;;;;;;;5044483;28;20282;-70
2020/12/29 09:38:00;;;;;;;46.13;25.90;;;;;;;;;;5032407;28;20212;-70
2020/12/29 09:40:27;;;;;;;60.90;27.53;;;;;;;;;;5039612;28;20232;-70
2020/12/29 09:42:53;;;;;;;53.40;27.57;;;;;;;;;;5033444;28;20243;-70
2020/12/29 09:45:19;;;;;;;45.50;25.97;;;;;;;;;;5043254;28;20198;-70
2020/12/29 09:47:45;;;;;;;40.23;24.80;;;;;;;;;;5049008;28;20629;-70
2020/12/29 09:50:11;;;;;;;46.57;26.33;;;;;;;;;;5040824;28;20208;-70
2020/12/29 09:52:36;;;;;;;43.03;24.13;;;;;;;;;;5047810;28;20188;-70
2020/12/29 09:55:03;;;;;;;50.87;26.73;;;;;;;;;;5037202;28;20660;-70
2020/12/29 09:57:29;;;;;;;42.87;25.13;;;;;;;;;;5039328;28;20202;-70
2020/12/29 09:59:54;;;;;;;41.87;24.77;;;;;;;;;;5028909;28;20190;-70
2020/12/29 10:02:21;;;;;;;40.30;25.77;;;;;;;;;;5045858;28;20173;-70
2020/12/29 10:04:46;;;;;;;45.33;24.70;;;;;;;;;;5035297;28;20544;-70
2020/12/29 10:07:11;;;;;;;40.67;25.23;;;;;;;;;;5046752;28;20701;-70
2020/12/29 10:09:37;;;;;;;43.47;25.23;;;;;;;;;;5034846;28;20221;-70
2020/12/29 10:12:02;;;;;;;42.77;24.60;;;;;;;;;;5046129;28;20189;-70
2020/12/29 10:14:27;;;;;;;40.73;21.63;;;;;;;;;;5044564;28;20189;-70
2020/12/29 10:16:53;;;;;;;37.27;22.70;;;;;;;;;;5038490;28;20201;-70
2020/12/29 10:19:18;;;;;;;34.53;22.73;;;;;;;;;;5045920;28;20191;-70
2020/12/29 10:21:53;;;;;;;38.50;24.43;;;;;;;;;;5038754;28;20492;-70
2020/12/29 10:24:19;;;;;;;37.37;22.63;;;;;;;;;;5045502;28;20192;-69
2020/12/29 10:26:48;;;;;;;32.10;20.83;;;;;;;;;;5031826;28;20186;-70
2020/12/29 10:29:13;;;;;;;34.87;21.17;;;;;;;;;;5047084;28;20242;-69
2020/12/29 10:31:39;;;;;;;33.77;20.63;;;;;;;;;;5049103;28;20281;-69
2020/12/29 10:34:04;;;;;;;30.37;19.73;;;;;;;;;;5047581;28;20193;-69
2020/12/29 10:36:33;;;;;;;33.33;18.83;;;;;;;;;;5038520;28;20275;-69
2020/12/29 10:38:59;;;;;;;30.27;18.10;;;;;;;;;;5044820;28;20185;-70
2020/12/29 10:41:28;;;;;;;31.60;18.90;;;;;;;;;;5036060;28;20544;-70
2020/12/29 10:43:54;;;;;;;27.40;16.57;;;;;;;;;;5043711;28;20189;-69
2020/12/29 10:46:19;;;;;;;29.40;16.90;;;;;;;;;;5038406;28;20293;-69
2020/12/29 10:48:44;;;;;;;33.13;17.40;;;;;;;;;;5042954;28;20694;-69
2020/12/29 10:51:19;;;;;;;30.77;16.90;;;;;;;;;;5038346;28;20196;-69
2020/12/29 10:53:45;;;;;;;30.87;17.90;;;;;;;;;;5039068;28;20426;-69
2020/12/29 10:56:11;;;;;;;29.90;17.20;;;;;;;;;;5039047;28;20246;-69
2020/12/29 10:58:37;;;;;;;31.83;18.00;;;;;;;;;;5030693;28;20219;-69
2020/12/29 11:01:03;;;;;;;31.53;17.93;;;;;;;;;;5038541;28;20186;-70
2020/12/29 11:03:29;;;;;;;31.10;17.07;;;;;;;;;;5027060;28;20416;-70
2020/12/29 11:05:54;;;;;;;28.23;16.87;;;;;;;;;;5038928;28;20659;-70
2020/12/29 11:08:19;;;;;;;34.63;18.60;;;;;;;;;;5034124;28;20284;-70
2020/12/29 11:10:44;;;;;;;34.87;18.93;;;;;;;;;;5047847;28;20217;-70
2020/12/29 11:13:11;;;;;;;35.93;19.57;;;;;;;;;;5035419;28;20243;-70
2020/12/29 11:15:36;;;;;;;35.57;19.27;;;;;;;;;;5039093;28;20189;-70
2020/12/29 11:18:01;;;;;;;39.63;19.90;;;;;;;;;;5034374;28;20232;-71
2020/12/29 11:20:26;;;;;;;36.43;19.43;;;;;;;;;;5044279;28;20185;-70
2020/12/29 11:22:52;;;;;;;36.33;20.37;;;;;;;;;;5031231;28;20308;-70
2020/12/29 11:25:17;;;;;;;40.57;21.10;;;;;;;;;;5038461;28;20571;-70
2020/12/29 11:27:42;;;;;;;40.73;20.50;;;;;;;;;;5038329;28;20547;-70
2020/12/29 11:30:08;;;;;;;41.17;20.60;;;;;;;;;;5032418;28;20189;-70
2020/12/29 11:32:33;;;;;;;38.20;19.80;;;;;;;;;;5042910;28;20190;-70
2020/12/29 11:34:58;;;;;;;41.43;21.47;;;;;;;;;;5037916;28;20205;-70
2020/12/29 11:37:24;;;;;;;41.97;19.83;;;;;;;;;;5045130;28;20224;-70
2020/12/29 11:39:49;;;;;;;38.47;19.67;;;;;;;;;;5037861;28;20193;-70
2020/12/29 11:42:14;;;;;;;43.37;21.43;;;;;;;;;;5044834;28;20181;-70
2020/12/29 11:44:39;;;;;;;44.97;21.13;;;;;;;;;;5030580;28;20192;-70
2020/12/29 11:47:05;;;;;;;40.17;21.00;;;;;;;;;;5047567;28;20227;-70
2020/12/29 11:49:30;;;;;;;42.70;21.13;;;;;;;;;;5038152;28;23701;-70
2020/12/29 11:51:55;;;;;;;42.43;21.13;;;;;;;;;;5046382;28;20185;-70
2020/12/29 11:54:21;;;;;;;37.43;19.73;;;;;;;;;;5039138;28;20196;-70
2020/12/29 11:56:49;;;;;;;40.37;20.40;;;;;;;;;;5035096;28;20204;-70
2020/12/29 11:59:15;;;;;;;45.23;23.33;;;;;;;;;;5045045;28;20178;-70
2020/12/29 12:01:40;;;;;;;43.00;21.63;;;;;;;;;;5033935;28;20196;-70
2020/12/29 12:04:05;;;;;;;45.07;22.60;;;;;;;;;;5047476;28;20862;-70
2020/12/29 12:06:32;;;;;;;38.27;20.63;;;;;;;;;;5037001;28;20240;-70
2020/12/29 12:08:57;;;;;;;37.33;20.37;;;;;;;;;;5044962;28;20639;-70
2020/12/29 12:11:27;;;;;;;42.57;20.80;;;;;;;;;;5036540;28;20260;-70
2020/12/29 12:13:53;;;;;;;42.27;20.83;;;;;;;;;;5047782;28;20790;-70
2020/12/29 12:16:18;;;;;;;42.27;22.63;;;;;;;;;;5032664;28;20205;-70
2020/12/29 12:18:43;;;;;;;44.00;21.50;;;;;;;;;;5038855;28;20220;-70
2020/12/29 12:21:09;;;;;;;40.97;21.97;;;;;;;;;;5028619;28;20204;-70
2020/12/29 12:23:34;;;;;;;43.83;20.87;;;;;;;;;;5029542;28;20626;-70
2020/12/29 12:25:59;;;;;;;42.73;22.47;;;;;;;;;;5041304;28;20235;-70
2020/12/29 12:28:27;;;;;;;45.17;22.63;;;;;;;;;;5031279;28;20186;-70
2020/12/29 12:30:52;;;;;;;48.50;22.87;;;;;;;;;;5041993;28;20723;-70
2020/12/29 12:33:18;;;;;;;41.97;21.93;;;;;;;;;;5037995;28;20185;-70
2020/12/29 12:35:43;;;;;;;44.33;22.93;;;;;;;;;;5046771;28;20686;-70
2020/12/29 12:38:08;;;;;;;36.83;19.43;;;;;;;;;;5036344;28;20711;-70
2020/12/29 12:40:34;;;;;;;43.90;20.63;;;;;;;;;;5046093;28;20547;-70
2020/12/29 12:42:59;;;;;;;42.20;21.80;;;;;;;;;;5032162;28;20196;-70
2020/12/29 12:45:24;;;;;;;42.90;21.00;;;;;;;;;;5042438;28;20609;-70
2020/12/29 12:47:50;;;;;;;37.40;19.23;;;;;;;;;;5033509;28;20302;-70
2020/12/29 12:50:15;;;;;;;38.73;20.27;;;;;;;;;;5042955;28;20717;-70
2020/12/29 12:52:40;;;;;;;44.00;24.10;;;;;;;;;;5040519;28;20211;-70
2020/12/29 12:55:06;;;;;;;37.77;19.87;;;;;;;;;;5045954;28;20178;-70
2020/12/29 12:57:31;;;;;;;43.30;22.00;;;;;;;;;;5040224;28;20208;-70
2020/12/29 12:59:56;;;;;;;38.27;21.07;;;;;;;;;;5035231;28;20558;-70
2020/12/29 13:02:22;;;;;;;37.50;20.33;;;;;;;;;;5048345;28;20190;-70
2020/12/29 13:04:47;;;;;;;38.13;21.23;;;;;;;;;;5035434;28;20208;-70
2020/12/29 13:07:12;;;;;;;34.87;19.00;;;;;;;;;;5049166;28;20209;-70
2020/12/29 13:09:38;;;;;;;31.63;18.43;;;;;;;;;;5038332;28;20193;-70
2020/12/29 13:12:03;;;;;;;35.00;18.07;;;;;;;;;;5045677;28;20260;-70
2020/12/29 13:14:28;;;;;;;34.10;19.10;;;;;;;;;;5034916;28;20596;-70
2020/12/29 13:16:53;;;;;;;33.87;19.37;;;;;;;;;;5045987;28;20302;-70
2020/12/29 13:19:19;;;;;;;30.60;17.10;;;;;;;;;;5034218;28;20276;-70
2020/12/29 13:21:49;;;;;;;31.03;17.53;;;;;;;;;;5044428;28;20212;-70
2020/12/29 13:24:14;;;;;;;27.37;16.47;;;;;;;;;;5035415;28;20174;-70
2020/12/29 13:26:39;;;;;;;29.57;16.13;;;;;;;;;;5047534;28;20385;-70
2020/12/29 13:29:05;;;;;;;26.60;14.97;;;;;;;;;;5049310;28;20180;-70
2020/12/29 13:31:30;;;;;;;27.87;15.83;;;;;;;;;;5038052;28;20199;-70
2020/12/29 13:33:55;;;;;;;26.57;15.97;;;;;;;;;;5038040;28;20184;-70
2020/12/29 13:36:21;;;;;;;26.97;16.30;;;;;;;;;;5039090;28;20718;-70
2020/12/29 13:38:46;;;;;;;24.67;14.97;;;;;;;;;;5046882;28;20181;-70
2020/12/29 13:41:11;;;;;;;25.23;15.30;;;;;;;;;;5027752;28;20304;-70
2020/12/29 13:43:37;;;;;;;29.47;15.50;;;;;;;;;;5040627;28;20185;-70
2020/12/29 13:46:06;;;;;;;23.50;14.57;;;;;;;;;;5035783;28;20280;-70
2020/12/29 13:48:32;;;;;;;22.97;14.63;;;;;;;;;;5043764;28;20268;-70
2020/12/29 13:50:59;;;;;;;25.93;14.57;;;;;;;;;;5038795;28;20338;-70
2020/12/29 13:53:25;;;;;;;25.70;16.33;;;;;;;;;;5043768;28;20185;-70
2020/12/29 13:55:50;;;;;;;23.43;14.47;;;;;;;;;;5033690;28;20673;-70
2020/12/29 13:58:16;;;;;;;27.13;15.07;;;;;;;;;;5043564;28;20390;-70
2020/12/29 14:00:43;;;;;;;25.50;14.67;;;;;;;;;;5043161;28;20186;-70
2020/12/29 14:03:08;;;;;;;23.37;13.97;;;;;;;;;;5034489;28;20187;-70
2020/12/29 14:05:37;;;;;;;23.47;14.20;;;;;;;;;;5036158;28;20190;-70
2020/12/29 14:08:03;;;;;;;25.30;14.47;;;;;;;;;;5037685;28;20217;-70
2020/12/29 14:10:29;;;;;;;21.30;13.07;;;;;;;;;;5043013;28;20185;-70
2020/12/29 14:12:54;;;;;;;23.00;13.13;;;;;;;;;;5037357;28;20193;-70
2020/12/29 14:15:20;;;;;;;21.93;12.83;;;;;;;;;;5041793;28;20213;-70